Berkeley, CA

7:23 PM PDT on August 30, 2016 (GMT -0700)
Berkeley Hills | | Change Station

Elev 446 ft 37.88 °N, 122.26 °W | Updated 10 minutes ago

Scattered Clouds
Scattered Clouds
67.6 °F
Feels Like 67.6 °F
N
3.2
Wind Variable Wind from West

Today
High -- | Low -- °F
--% Chance of Precip.
Yesterday
High -- | Low -- °F
Precip. -- in
Pressure 29.92 in
Visibility 10.0 miles
Clouds Few 1000 ft
Scattered Clouds 20000 ft
Dew Point 57 °F
Humidity 69%
Rainfall 0.00 in
Snow Depth Not available.
6:37 AM 7:40 PM
Waning Crescent, 2% visible
METAR KOAK 310153Z 26011KT 10SM FEW010 SCT200 20/14 A2992 RMK AO2 SLP130 T02000144
Pressure 29.92 in
Visibility 10.0 miles
Clouds Few 1000 ft
Scattered Clouds 20000 ft
Dew Point 57 °F
Humidity 69%
Rainfall 0.00 in
Snow Depth Not available.
6:37 AM 7:40 PM
Waning Crescent, 2% visible
METAR KOAK 310153Z 26011KT 10SM FEW010 SCT200 20/14 A2992 RMK AO2 SLP130 T02000144

10-Day Weather Forecast

Almanac

Astronomy

Aug. 30, 2016 Rise Set
Actual Time
Civil Twilight
Nautical Twilight
Astronomical Twilight
Moon
Length of Visible Light
Length of Day
Tomorrow will be .
, % of the Moon is Illuminated

Today's Extremes

State Highs State Lows

Community

WunderPhotos

Upload Photos

1,935,997 photos uploaded!

WunderBlog® & News

Nearby

Air Quality

  Air Quality AQ Index Pollutant
Not available.

Snow Depth

Station Depth Elevation

Earthquake Activity

City Distance Mag. Time & Date
Minimum magnitude displayed is 2.5.

Coastal Water Temperatures

Place Temperature

Stations

Nearby Weather Stations

Station Location Temp. Windchill Dew Point Humidity Wind Precip. Elev Updated Type
                   

Watches & Warnings

There are currently no watches in effect.